createdAt,value
2023-02-23T00:02:20.960Z,6.80
2023-02-23T00:04:49.366Z,9.10
2023-02-23T00:07:21.141Z,9.30
2023-02-23T00:09:51.187Z,8.50
2023-02-23T00:12:22.367Z,9.70
2023-02-23T00:14:50.726Z,8.50
2023-02-23T00:17:20.308Z,8.40
2023-02-23T00:19:57.739Z,6.90
2023-02-23T00:22:31.967Z,6.60
2023-02-23T00:25:03.446Z,6.40
2023-02-23T00:27:34.547Z,6.50
2023-02-23T00:30:05.148Z,6.60
2023-02-23T00:32:40.431Z,5.80
2023-02-23T00:35:18.936Z,6.10
2023-02-23T00:37:54.374Z,6.70
2023-02-23T00:40:27.461Z,6.40
2023-02-23T00:42:59.936Z,6.10
2023-02-23T00:45:30.983Z,7.00
2023-02-23T00:48:02.575Z,7.60
2023-02-23T00:50:45.125Z,6.10
2023-02-23T00:53:20.036Z,5.70
2023-02-23T00:56:08.656Z,6.50
2023-02-23T00:58:56.864Z,6.90
2023-02-23T01:01:29.127Z,5.30
2023-02-23T01:04:12.767Z,6.40
2023-02-23T01:06:55.700Z,6.80
2023-02-23T01:09:31.695Z,6.80
2023-02-23T01:12:02.013Z,6.20
2023-02-23T01:14:31.547Z,5.20
2023-02-23T01:17:00.682Z,7.20
2023-02-23T01:20:02.057Z,8.10
2023-02-23T01:22:31.789Z,7.40
2023-02-23T01:25:00.241Z,7.60
2023-02-23T01:27:29.478Z,8.10
2023-02-23T01:29:57.665Z,7.50
2023-02-23T01:32:27.078Z,7.60
2023-02-23T01:34:56.115Z,8.20
2023-02-23T01:37:24.552Z,8.00
2023-02-23T01:39:53.407Z,8.30
2023-02-23T01:42:43.261Z,8.00
2023-02-23T01:45:24.053Z,7.50
2023-02-23T01:47:55.117Z,8.00
2023-02-23T01:50:25.460Z,7.80
2023-02-23T01:52:53.775Z,7.90
2023-02-23T01:55:26.084Z,9.00
2023-02-23T01:57:55.940Z,8.60
2023-02-23T02:00:26.170Z,7.70
2023-02-23T02:02:54.823Z,8.10
2023-02-23T02:05:23.291Z,7.90
2023-02-23T02:07:59.080Z,8.20
2023-02-23T02:10:39.753Z,7.80
2023-02-23T02:13:09.040Z,9.20
2023-02-23T02:15:41.151Z,9.00
2023-02-23T02:18:38.358Z,9.40
2023-02-23T02:21:18.173Z,9.60
2023-02-23T02:24:16.068Z,8.10
2023-02-23T02:26:50.208Z,8.00
2023-02-23T02:29:29.034Z,8.80
2023-02-23T02:32:16.609Z,9.10
2023-02-23T02:35:03.958Z,9.30
2023-02-23T02:37:42.116Z,8.40
2023-02-23T02:40:22.724Z,9.50
2023-02-23T02:43:08.984Z,9.90
2023-02-23T02:45:50.461Z,8.80
2023-02-23T02:48:21.915Z,10.50
2023-02-23T02:51:18.224Z,11.10
2023-02-23T02:54:15.302Z,8.30
2023-02-23T02:56:44.414Z,9.30
2023-02-23T02:59:33.418Z,10.20
2023-02-23T03:02:21.696Z,8.80
2023-02-23T03:05:08.717Z,10.10
2023-02-23T03:07:59.730Z,10.30
2023-02-23T03:11:21.510Z,10.20
2023-02-23T03:14:15.698Z,9.70
2023-02-23T03:17:15.503Z,8.90
2023-02-23T03:20:16.319Z,8.60
2023-02-23T03:23:14.438Z,9.30
2023-02-23T03:26:25.758Z,9.80
2023-02-23T03:29:23.118Z,10.40
2023-02-23T03:32:38.603Z,9.50
2023-02-23T03:35:33.545Z,8.10
2023-02-23T03:38:29.640Z,7.80
2023-02-23T03:41:17.188Z,9.60
2023-02-23T03:44:09.523Z,10.30
2023-02-23T03:46:56.967Z,9.00
2023-02-23T03:49:45.512Z,9.80
2023-02-23T03:52:39.297Z,10.60
2023-02-23T03:55:41.063Z,11.60
2023-02-23T03:58:29.609Z,9.70
2023-02-23T04:01:18.065Z,8.80
2023-02-23T04:04:05.318Z,10.50
2023-02-23T04:06:54.887Z,10.00
2023-02-23T04:09:41.758Z,10.20
2023-02-23T04:12:49.718Z,9.90
2023-02-23T04:15:33.322Z,9.80
2023-02-23T04:18:06.639Z,10.10
2023-02-23T04:20:35.532Z,9.90
2023-02-23T04:23:04.575Z,9.60
2023-02-23T04:25:33.257Z,10.00
2023-02-23T04:28:01.439Z,9.50
2023-02-23T04:30:30.667Z,8.60
2023-02-23T04:32:59.550Z,9.30
2023-02-23T04:35:30.105Z,8.40
2023-02-23T04:38:01.716Z,9.50
2023-02-23T04:40:30.117Z,8.80
2023-02-23T04:42:58.435Z,7.90
2023-02-23T04:45:26.820Z,9.70
2023-02-23T04:47:55.099Z,9.30
2023-02-23T04:50:25.517Z,8.70
2023-02-23T04:52:53.987Z,9.00
2023-02-23T04:55:24.668Z,8.80
2023-02-23T04:57:57.963Z,9.90
2023-02-23T05:00:27.106Z,9.10
2023-02-23T05:02:56.369Z,9.10
2023-02-23T05:05:25.682Z,8.80
2023-02-23T05:07:55.205Z,9.70
2023-02-23T05:10:25.030Z,10.10
2023-02-23T05:12:55.532Z,11.20
2023-02-23T05:15:23.753Z,10.40
2023-02-23T05:17:51.937Z,10.90
2023-02-23T05:20:24.777Z,12.00
2023-02-23T05:22:53.184Z,11.90
2023-02-23T05:25:21.474Z,11.10
2023-02-23T05:27:53.138Z,11.20
2023-02-23T05:30:21.729Z,11.00
2023-02-23T05:32:51.642Z,12.40
2023-02-23T05:35:20.050Z,11.90
2023-02-23T05:37:48.300Z,13.20
2023-02-23T05:40:16.697Z,12.10
2023-02-23T05:42:46.763Z,13.00
2023-02-23T05:45:15.247Z,12.40
2023-02-23T05:47:43.505Z,13.10
2023-02-23T05:50:12.054Z,13.00
2023-02-23T05:52:41.814Z,11.50
2023-02-23T05:55:11.905Z,11.40
2023-02-23T05:57:41.281Z,11.50
2023-02-23T06:00:11.092Z,11.50
2023-02-23T06:02:42.002Z,10.90
2023-02-23T06:05:11.597Z,12.50
2023-02-23T06:07:39.791Z,11.80
2023-02-23T06:10:08.375Z,11.60
2023-02-23T06:12:36.983Z,10.40
2023-02-23T06:15:06.267Z,10.70
2023-02-23T06:17:36.017Z,11.90
2023-02-23T06:20:05.588Z,11.70
2023-02-23T06:22:37.214Z,11.60
2023-02-23T06:25:22.351Z,11.50
2023-02-23T06:28:16.229Z,10.40
2023-02-23T06:31:18.513Z,11.40
2023-02-23T06:34:00.685Z,11.20
2023-02-23T06:36:29.768Z,11.20
2023-02-23T06:38:59.234Z,11.30
2023-02-23T06:41:27.929Z,9.80
2023-02-23T06:43:56.154Z,10.40
2023-02-23T06:46:24.866Z,11.20
2023-02-23T06:49:03.003Z,11.20
2023-02-23T06:51:31.855Z,12.00
2023-02-23T06:54:00.105Z,10.60
2023-02-23T06:56:28.360Z,11.80
2023-02-23T06:58:56.665Z,11.80
2023-02-23T07:01:25.463Z,12.10
2023-02-23T07:03:53.778Z,9.00
2023-02-23T07:06:22.247Z,12.10
2023-02-23T07:08:50.880Z,11.90
2023-02-23T07:11:20.522Z,11.10
2023-02-23T07:13:49.432Z,11.40
2023-02-23T07:16:17.811Z,12.90
2023-02-23T07:18:46.125Z,12.10
2023-02-23T07:21:14.429Z,9.00
2023-02-23T07:23:43.113Z,10.40
2023-02-23T07:26:15.615Z,8.80
2023-02-23T07:29:04.511Z,10.10
2023-02-23T07:31:46.730Z,11.70
2023-02-23T07:34:15.238Z,11.60
2023-02-23T07:36:43.434Z,11.40
2023-02-23T07:39:11.996Z,10.90
2023-02-23T07:41:40.583Z,8.80
2023-02-23T07:44:17.154Z,11.20
2023-02-23T07:46:46.653Z,11.20
2023-02-23T07:49:14.882Z,10.30
2023-02-23T07:51:43.347Z,11.20
2023-02-23T07:54:12.445Z,10.10
2023-02-23T07:56:40.726Z,9.40
2023-02-23T07:59:08.981Z,10.40
2023-02-23T08:01:39.312Z,9.20
2023-02-23T08:04:07.725Z,9.80
2023-02-23T08:06:37.435Z,8.80
2023-02-23T08:09:06.412Z,8.90
2023-02-23T08:11:35.380Z,7.50
2023-02-23T08:14:04.111Z,7.50
2023-02-23T08:16:33.112Z,7.20
2023-02-23T08:19:01.553Z,7.70
2023-02-23T08:21:30.123Z,8.90
2023-02-23T08:24:00.277Z,8.70
2023-02-23T08:26:31.432Z,7.70
2023-02-23T08:29:00.973Z,8.00
2023-02-23T08:31:29.880Z,8.20
2023-02-23T08:33:58.733Z,7.90
2023-02-23T08:36:27.433Z,8.30
2023-02-23T08:38:56.111Z,7.70
2023-02-23T08:41:25.838Z,7.90
2023-02-23T08:43:54.499Z,7.50
2023-02-23T08:46:22.836Z,8.00
2023-02-23T08:48:51.554Z,7.30
2023-02-23T08:51:20.080Z,8.10
2023-02-23T08:53:48.596Z,8.00
2023-02-23T08:56:16.864Z,8.30
2023-02-23T08:58:45.238Z,7.60
2023-02-23T09:01:18.593Z,8.30
2023-02-23T09:03:47.850Z,7.50
2023-02-23T09:06:18.890Z,7.70
2023-02-23T09:08:47.470Z,7.10
2023-02-23T09:11:15.705Z,8.00
2023-02-23T09:13:45.026Z,8.80
2023-02-23T09:16:13.351Z,8.00
2023-02-23T09:18:42.149Z,7.40
2023-02-23T09:21:19.656Z,8.50
2023-02-23T09:23:52.721Z,8.70
2023-02-23T09:26:32.976Z,8.60
2023-02-23T09:29:01.802Z,7.70
2023-02-23T09:31:33.152Z,7.30
2023-02-23T09:34:02.078Z,9.10
2023-02-23T09:36:34.796Z,6.60
2023-02-23T09:39:03.740Z,7.10
2023-02-23T09:41:43.913Z,6.80
2023-02-23T09:44:34.368Z,7.90
2023-02-23T09:47:15.196Z,7.30
2023-02-23T09:49:45.404Z,8.20
2023-02-23T09:52:19.852Z,8.00
2023-02-23T09:54:48.649Z,8.00
2023-02-23T09:57:24.431Z,9.30
2023-02-23T09:59:53.458Z,8.10
2023-02-23T10:02:23.746Z,7.70
2023-02-23T10:05:02.317Z,9.30
2023-02-23T10:07:50.244Z,10.30
2023-02-23T10:10:32.521Z,8.90
2023-02-23T10:13:16.174Z,9.10
2023-02-23T10:15:45.845Z,10.10
2023-02-23T10:18:20.933Z,9.10
2023-02-23T10:21:09.603Z,9.30
2023-02-23T10:23:49.399Z,9.80
2023-02-23T10:26:20.047Z,8.00
2023-02-23T10:28:49.083Z,9.10
2023-02-23T10:31:45.407Z,7.60
2023-02-23T10:34:15.421Z,9.80
2023-02-23T10:36:57.844Z,8.90
2023-02-23T10:39:26.593Z,7.00
2023-02-23T10:41:56.162Z,5.90
2023-02-23T10:44:26.414Z,8.10
2023-02-23T10:47:00.534Z,7.40
2023-02-23T10:49:38.118Z,6.60
2023-02-23T10:52:13.813Z,5.50
2023-02-23T10:54:50.004Z,8.10
2023-02-23T10:57:34.578Z,8.40
2023-02-23T11:00:33.108Z,8.30
2023-02-23T11:03:01.853Z,7.10
2023-02-23T11:05:37.286Z,7.00
2023-02-23T11:08:21.749Z,8.40
2023-02-23T11:10:56.784Z,6.80
2023-02-23T11:13:27.457Z,7.60
2023-02-23T11:16:00.987Z,7.50
2023-02-23T11:18:34.244Z,8.40
2023-02-23T11:21:12.506Z,6.60
2023-02-23T11:23:40.851Z,6.50
2023-02-23T11:26:34.524Z,7.30
2023-02-23T11:29:14.188Z,6.70
2023-02-23T11:31:48.931Z,4.70
2023-02-23T11:34:33.014Z,6.10
2023-02-23T11:37:29.899Z,7.00
2023-02-23T11:41:00.224Z,6.50
2023-02-23T11:43:28.675Z,5.70
2023-02-23T11:45:58.683Z,6.20
2023-02-23T11:48:30.519Z,6.00
2023-02-23T11:50:59.138Z,6.60
2023-02-23T11:53:32.684Z,6.00
2023-02-23T11:56:08.316Z,6.70
2023-02-23T11:58:49.651Z,6.60
2023-02-23T12:01:21.230Z,6.10
2023-02-23T12:06:33.357Z,5.80
2023-02-23T12:09:04.921Z,5.60
2023-02-23T12:11:38.192Z,5.80
2023-02-23T12:14:18.208Z,5.90
2023-02-23T12:16:48.722Z,5.10
2023-02-23T12:19:29.033Z,4.20
2023-02-23T12:22:18.826Z,5.80
2023-02-23T12:25:19.592Z,4.90
2023-02-23T12:28:19.733Z,5.50
2023-02-23T12:31:12.020Z,4.90
2023-02-23T12:33:48.056Z,5.60
2023-02-23T12:36:16.667Z,5.30
2023-02-23T12:38:56.482Z,4.60
2023-02-23T12:41:49.544Z,4.90
2023-02-23T12:44:39.873Z,5.00
2023-02-23T12:47:16.552Z,5.20
2023-02-23T12:49:46.981Z,5.00
2023-02-23T12:52:25.963Z,4.30
2023-02-23T12:54:54.353Z,4.50
2023-02-23T12:57:38.910Z,4.70
2023-02-23T13:00:33.008Z,4.20
2023-02-23T13:03:39.110Z,4.80
2023-02-23T13:06:31.228Z,4.10
2023-02-23T13:08:59.450Z,4.30
2023-02-23T13:11:31.808Z,5.20
2023-02-23T13:14:15.025Z,5.80
2023-02-23T13:16:56.647Z,5.00
2023-02-23T13:19:27.376Z,5.40
2023-02-23T13:21:59.832Z,5.00
2023-02-23T13:24:33.640Z,4.50
2023-02-23T13:27:07.904Z,5.30
2023-02-23T13:29:40.164Z,4.70
2023-02-23T13:32:13.180Z,5.20
2023-02-23T13:34:44.518Z,5.30
2023-02-23T13:37:13.784Z,5.20
2023-02-23T13:40:13.765Z,5.70
2023-02-23T13:43:01.310Z,5.20
2023-02-23T13:45:44.248Z,5.60
2023-02-23T13:48:18.860Z,4.80
2023-02-23T13:51:06.870Z,5.30
2023-02-23T13:53:47.277Z,5.70
2023-02-23T13:56:16.855Z,5.80
2023-02-23T13:58:51.513Z,4.90
2023-02-23T14:01:26.929Z,5.60
2023-02-23T14:03:57.533Z,5.40
2023-02-23T14:06:27.450Z,5.30
2023-02-23T14:09:17.424Z,4.80
2023-02-23T14:11:51.347Z,4.40
2023-02-23T14:14:34.725Z,4.60
2023-02-23T14:17:35.619Z,4.50
2023-02-23T14:20:27.852Z,5.10
2023-02-23T14:23:23.189Z,5.30
2023-02-23T14:26:12.199Z,4.70
2023-02-23T14:29:11.287Z,4.60
2023-02-23T14:31:40.146Z,4.40
2023-02-23T14:34:10.042Z,4.90
2023-02-23T14:36:44.072Z,4.70
2023-02-23T14:39:26.372Z,4.60
2023-02-23T14:41:59.140Z,4.80
2023-02-23T14:44:31.188Z,4.70
2023-02-23T14:47:13.456Z,3.90
2023-02-23T14:49:52.138Z,4.40
2023-02-23T14:52:31.571Z,4.80
2023-02-23T14:55:29.184Z,4.20
2023-02-23T14:57:58.435Z,4.80
2023-02-23T15:00:32.815Z,4.70
2023-02-23T15:03:09.346Z,5.10
2023-02-23T15:05:57.615Z,4.50
2023-02-23T15:08:31.201Z,4.50
2023-02-23T15:11:12.240Z,4.50
2023-02-23T15:13:51.802Z,4.20
2023-02-23T15:16:37.810Z,4.50
2023-02-23T15:19:25.427Z,4.70
2023-02-23T15:22:41.674Z,4.30
2023-02-23T15:25:16.556Z,5.30
2023-02-23T15:27:46.042Z,4.20
2023-02-23T15:30:25.300Z,4.50
2023-02-23T15:33:06.371Z,4.10
2023-02-23T15:35:54.428Z,4.60
2023-02-23T15:38:42.361Z,4.10
2023-02-23T15:41:26.137Z,4.20
2023-02-23T15:43:56.546Z,3.80
2023-02-23T15:46:26.921Z,4.20
2023-02-23T15:48:56.380Z,4.50
2023-02-23T15:51:49.081Z,4.60
2023-02-23T15:54:35.526Z,4.40
2023-02-23T15:57:06.843Z,4.70
2023-02-23T15:59:36.963Z,4.00
2023-02-23T16:02:14.895Z,3.80
2023-02-23T16:04:49.141Z,4.20
2023-02-23T16:07:19.593Z,4.70
2023-02-23T16:09:52.868Z,5.70
2023-02-23T16:12:36.629Z,6.50
2023-02-23T16:15:36.634Z,6.50
2023-02-23T16:18:16.139Z,5.90
2023-02-23T16:20:56.941Z,6.70
2023-02-23T16:23:37.692Z,6.00
2023-02-23T16:26:27.418Z,5.80
2023-02-23T16:29:00.487Z,5.20
2023-02-23T16:31:49.088Z,5.90
2023-02-23T16:34:24.345Z,4.90
2023-02-23T16:37:00.202Z,6.60
2023-02-23T16:39:29.815Z,5.80
2023-02-23T16:41:58.833Z,5.20
2023-02-23T16:44:34.228Z,5.50
2023-02-23T16:47:03.906Z,5.10
2023-02-23T16:49:34.536Z,4.60
2023-02-23T16:52:05.107Z,5.10
2023-02-23T16:54:33.670Z,5.60
2023-02-23T16:57:04.445Z,5.40
2023-02-23T16:59:35.845Z,5.30
2023-02-23T17:02:12.461Z,5.70
2023-02-23T17:04:49.573Z,5.70
2023-02-23T17:07:27.337Z,5.20
2023-02-23T17:10:04.237Z,5.60
2023-02-23T17:12:56.550Z,5.80
2023-02-23T17:15:56.759Z,5.70
2023-02-23T17:18:46.308Z,5.90
2023-02-23T17:21:26.048Z,6.70
2023-02-23T17:24:10.495Z,5.30
2023-02-23T17:27:12.577Z,5.00
2023-02-23T17:30:00.722Z,6.10
2023-02-23T17:32:36.359Z,5.50
2023-02-23T17:35:25.411Z,5.40
2023-02-23T17:38:15.514Z,5.30
2023-02-23T17:40:53.172Z,5.80
2023-02-23T17:43:35.668Z,6.10
2023-02-23T17:46:33.566Z,6.10
2023-02-23T17:49:16.164Z,5.70
2023-02-23T17:51:44.520Z,6.60
2023-02-23T17:54:13.163Z,6.90
2023-02-23T17:56:41.398Z,6.50
2023-02-23T17:59:10.858Z,6.50
2023-02-23T18:01:40.500Z,6.70
2023-02-23T18:04:09.364Z,5.50
2023-02-23T18:06:38.907Z,6.20
2023-02-23T18:09:08.077Z,6.50
2023-02-23T18:11:36.440Z,5.80
2023-02-23T18:14:05.104Z,5.80
2023-02-23T18:16:34.878Z,6.40
2023-02-23T18:19:06.564Z,6.00
2023-02-23T18:21:39.676Z,6.00
2023-02-23T18:24:08.795Z,6.70
2023-02-23T18:26:38.677Z,5.40
2023-02-23T18:29:07.809Z,6.40
2023-02-23T18:31:39.246Z,5.30
2023-02-23T18:34:08.832Z,6.10
2023-02-23T18:36:37.277Z,5.80
2023-02-23T18:39:07.092Z,6.30
2023-02-23T18:41:37.405Z,6.60
2023-02-23T18:44:12.760Z,7.20
2023-02-23T18:46:43.232Z,6.00
2023-02-23T18:49:17.572Z,5.60
2023-02-23T18:51:49.204Z,5.90
2023-02-23T18:54:21.167Z,6.20
2023-02-23T18:56:49.462Z,6.10
2023-02-23T18:59:17.867Z,5.30
2023-02-23T19:01:49.581Z,5.80
2023-02-23T19:04:17.984Z,4.90
2023-02-23T19:06:47.432Z,4.90
2023-02-23T19:09:20.179Z,6.20
2023-02-23T19:11:51.714Z,5.80
2023-02-23T19:14:32.967Z,4.90
2023-02-23T19:17:09.896Z,6.00
2023-02-23T19:19:38.321Z,5.00
2023-02-23T19:22:09.930Z,5.70
2023-02-23T19:24:42.059Z,5.70
2023-02-23T19:27:11.097Z,5.50
2023-02-23T19:29:40.617Z,5.40
2023-02-23T19:32:09.952Z,5.70
2023-02-23T19:34:40.696Z,5.30
2023-02-23T19:37:16.457Z,5.40
2023-02-23T19:39:46.693Z,5.20
2023-02-23T19:42:18.600Z,5.30
2023-02-23T19:44:48.074Z,7.00
2023-02-23T19:47:16.438Z,7.50
2023-02-23T19:49:45.264Z,8.60
2023-02-23T19:52:13.549Z,8.60
2023-02-23T19:54:41.887Z,8.50
2023-02-23T19:57:10.711Z,6.80
2023-02-23T19:59:39.096Z,7.50
2023-02-23T20:02:11.278Z,7.70
2023-02-23T20:04:39.717Z,7.60
2023-02-23T20:07:10.333Z,7.30
2023-02-23T20:09:38.732Z,7.40
2023-02-23T20:12:07.214Z,8.10
2023-02-23T20:14:39.064Z,7.50
2023-02-23T20:17:13.923Z,7.80
2023-02-23T20:19:44.506Z,7.70
2023-02-23T20:22:12.725Z,8.00
2023-02-23T20:24:41.439Z,8.40
2023-02-23T20:27:10.034Z,9.10
2023-02-23T20:29:45.181Z,8.00
2023-02-23T20:32:18.743Z,8.20
2023-02-23T20:34:50.653Z,12.90
2023-02-23T20:37:19.237Z,12.10
2023-02-23T21:00:20.399Z,12.30
2023-02-23T21:02:48.777Z,12.30
2023-02-23T21:05:17.171Z,12.50
2023-02-23T21:07:45.490Z,11.70
2023-02-23T21:10:14.135Z,9.30
2023-02-23T21:12:42.503Z,8.70
2023-02-23T21:15:18.390Z,9.30
2023-02-23T21:17:46.739Z,7.90
2023-02-23T21:20:15.871Z,7.80
2023-02-23T21:22:44.121Z,8.40
2023-02-23T21:25:13.224Z,8.40
2023-02-23T21:28:02.144Z,8.30
2023-02-23T21:30:30.769Z,8.70
2023-02-23T21:33:00.398Z,8.00
2023-02-23T21:35:28.892Z,7.40
2023-02-23T21:37:57.869Z,8.10
2023-02-23T21:40:26.961Z,9.20
2023-02-23T21:42:55.942Z,7.90
2023-02-23T21:45:24.225Z,8.90
2023-02-23T21:47:52.612Z,9.50
2023-02-23T21:50:21.915Z,8.40
2023-02-23T21:52:54.468Z,8.10
2023-02-23T21:55:23.242Z,6.40
2023-02-23T21:57:52.583Z,6.90
2023-02-23T22:00:21.941Z,7.50
2023-02-23T22:02:51.212Z,6.10
2023-02-23T22:05:20.007Z,6.60
2023-02-23T22:07:49.994Z,7.20
2023-02-23T22:10:20.353Z,6.10
2023-02-23T22:12:50.349Z,6.10
2023-02-23T22:17:48.948Z,7.00
2023-02-23T22:20:20.397Z,6.20
2023-02-23T22:22:51.445Z,6.00
2023-02-23T22:25:20.235Z,7.00
2023-02-23T22:27:48.739Z,7.10
2023-02-23T22:30:17.236Z,7.50
2023-02-23T22:32:46.791Z,7.80
2023-02-23T22:35:15.721Z,8.00
2023-02-23T22:37:44.044Z,7.70
2023-02-23T22:40:17.143Z,7.50
2023-02-23T22:42:48.678Z,7.50
2023-02-23T22:45:18.044Z,6.30
2023-02-23T22:47:46.514Z,7.20
2023-02-23T22:50:18.244Z,6.70
2023-02-23T22:52:52.496Z,7.50
2023-02-23T22:55:20.873Z,6.40
2023-02-23T22:57:49.673Z,6.50
2023-02-23T23:00:19.127Z,7.40
2023-02-23T23:02:47.756Z,8.40
2023-02-23T23:05:16.446Z,8.20
2023-02-23T23:07:47.280Z,8.80
2023-02-23T23:10:18.736Z,8.70
2023-02-23T23:12:47.214Z,8.70
2023-02-23T23:15:17.352Z,8.50
2023-02-23T23:17:48.686Z,8.40
2023-02-23T23:20:18.828Z,7.60
2023-02-23T23:22:47.066Z,7.30
2023-02-23T23:25:23.379Z,6.60
2023-02-23T23:27:54.650Z,7.10
2023-02-23T23:30:29.616Z,6.10
2023-02-23T23:32:58.586Z,7.40
2023-02-23T23:35:27.123Z,10.10
2023-02-23T23:37:57.858Z,9.00
2023-02-23T23:40:26.547Z,8.90
2023-02-23T23:42:56.165Z,10.00
2023-02-23T23:45:25.333Z,9.80
2023-02-23T23:47:53.638Z,9.70
2023-02-23T23:50:27.520Z,8.40
2023-02-23T23:52:57.305Z,9.10
2023-02-23T23:55:31.482Z,7.10
2023-02-23T23:58:00.674Z,8.10
